Beersheba, Israel
Current Conditions -  °F | °C
As of 11:20 AM on Tuesday 27 Jan 2015 (Local Time) from LLBG Reporting Station
Clear Clear  
Wind Chill: 61°   Ceiling: Unl
Heat Index: 61°   Visibility: 6mi
Dew Point: 39°   Wind: 7mph
Humidity: 45%   Direction: 10°N
Pressure: 30.03"   Gusts: NA
Location:  31.25°N, 34.8°E
Report Text: LLBG 270820Z 01006KT 9000 NSC 16/04 Q1017 NOSIG
Loading
Personal Weather Stations






























Interactive Weather Map New forecast layout! Learn more

10-Day Weather Forecast

Advertisements
Track Severe Weather on mobile